Time,TemperatureF,DewpointF,PressureIn,WindDirection,WindDirectionDegrees,WindSpeedMPH,WindSpeedGustMPH,Humidity,HourlyPrecipIn,Conditions,Clouds,dailyrainin,SoftwareType,DateUTC
2013-05-24 00:02:00,66.4,64.6,29.79,WNW,292,2.2,-999.0,94,-99.99,,,0.00,Acu-Link.com,2013-05-24 05:02:00,
2013-05-24 00:17:00,66.4,64.6,29.80,East,90,2.7,-999.0,94,-99.99,,,0.01,Acu-Link.com,2013-05-24 05:17:00,
2013-05-24 00:32:00,66.4,64.6,29.82,WNW,292,2.7,-999.0,94,-99.99,,,0.01,Acu-Link.com,2013-05-24 05:32:00,
2013-05-24 00:47:00,66.4,64.6,29.81,SW,225,2.2,-999.0,94,-99.99,,,0.01,Acu-Link.com,2013-05-24 05:47:00,
2013-05-24 01:02:00,66.4,64.6,29.81,SW,225,0.0,-999.0,94,-99.99,,,0.01,Acu-Link.com,2013-05-24 06:02:00,
2013-05-24 01:17:00,66.4,64.6,29.82,West,270,0.0,-999.0,94,-99.99,,,0.01,Acu-Link.com,2013-05-24 06:17:00,
2013-05-24 01:32:00,66.4,64.6,29.82,ESE,112,0.0,-999.0,94,-99.99,,,0.01,Acu-Link.com,2013-05-24 06:32:00,
2013-05-24 01:48:00,66.4,64.6,29.81,East,90,0.0,-999.0,94,-99.99,,,0.01,Acu-Link.com,2013-05-24 06:48:00,
2013-05-24 02:03:00,66.4,64.6,29.80,SW,225,0.0,-999.0,94,-99.99,,,0.01,Acu-Link.com,2013-05-24 07:03:00,
2013-05-24 02:18:00,66.4,64.6,29.81,SW,225,0.0,-999.0,94,-99.99,,,0.01,Acu-Link.com,2013-05-24 07:18:00,
2013-05-24 02:33:00,66.2,64.4,29.81,SW,225,0.0,-999.0,94,-99.99,,,0.01,Acu-Link.com,2013-05-24 07:33:00,
2013-05-24 02:48:00,66.2,64.7,29.81,SW,225,0.0,-999.0,95,-99.99,,,0.01,Acu-Link.com,2013-05-24 07:48:00,
2013-05-24 03:04:00,66.2,64.7,29.81,ENE,67,0.0,-999.0,95,-99.99,,,0.01,Acu-Link.com,2013-05-24 08:04:00,
2013-05-24 03:19:00,66.2,64.7,29.81,ENE,67,0.0,-999.0,95,-99.99,,,0.01,Acu-Link.com,2013-05-24 08:19:00,
2013-05-24 03:34:00,66.2,64.7,29.82,ENE,67,0.0,-999.0,95,-99.99,,,0.01,Acu-Link.com,2013-05-24 08:34:00,
2013-05-24 03:49:00,66.2,64.7,29.82,ENE,67,0.0,-999.0,95,-99.99,,,0.01,Acu-Link.com,2013-05-24 08:49:00,
2013-05-24 04:04:00,66.2,64.7,29.82,ENE,67,0.0,-999.0,95,-99.99,,,0.01,Acu-Link.com,2013-05-24 09:04:00,
2013-05-24 04:20:00,66.2,64.7,29.81,ENE,67,0.0,-999.0,95,-99.99,,,0.01,Acu-Link.com,2013-05-24 09:20:00,
2013-05-24 04:35:00,66.2,64.7,29.81,ENE,67,0.0,-999.0,95,-99.99,,,0.01,Acu-Link.com,2013-05-24 09:35:00,
2013-05-24 04:50:00,66.2,64.7,29.83,ENE,67,0.0,-999.0,95,-99.99,,,0.01,Acu-Link.com,2013-05-24 09:50:00,
2013-05-24 05:05:00,66.2,64.7,29.82,ENE,67,0.0,-999.0,95,-99.99,,,0.01,Acu-Link.com,2013-05-24 10:05:00,
2013-05-24 05:20:00,66.0,64.5,29.82,South,180,0.0,-999.0,95,-99.99,,,0.01,Acu-Link.com,2013-05-24 10:20:00,
2013-05-24 05:35:00,65.8,64.3,29.83,NW,315,0.0,-999.0,95,-99.99,,,0.01,Acu-Link.com,2013-05-24 10:35:00,
2013-05-24 05:50:00,66.0,64.5,29.84,WNW,292,0.0,-999.0,95,-99.99,,,0.01,Acu-Link.com,2013-05-24 10:50:00,
2013-05-24 06:05:00,66.0,64.5,29.84,SSW,202,0.0,-999.0,95,-99.99,,,0.01,Acu-Link.com,2013-05-24 11:05:00,
2013-05-24 06:20:00,66.0,64.5,29.84,SE,135,0.0,-999.0,95,-99.99,,,0.01,Acu-Link.com,2013-05-24 11:20:00,
2013-05-24 06:36:00,66.2,64.7,29.85,NW,315,0.0,-999.0,95,-99.99,,,0.01,Acu-Link.com,2013-05-24 11:36:00,
2013-05-24 06:51:00,66.2,64.7,29.86,NE,45,0.0,-999.0,95,-99.99,,,0.01,Acu-Link.com,2013-05-24 11:51:00,
2013-05-24 07:06:00,67.3,65.8,29.86,NW,315,0.0,-999.0,95,-99.99,,,0.01,Acu-Link.com,2013-05-24 12:06:00,
2013-05-24 07:21:00,67.6,66.1,29.87,NE,45,0.0,-999.0,95,-99.99,,,0.01,Acu-Link.com,2013-05-24 12:21:00,
2013-05-24 07:36:00,68.7,67.2,29.88,SW,225,0.0,-999.0,95,-99.99,,,0.01,Acu-Link.com,2013-05-24 12:36:00,
2013-05-24 07:51:00,69.1,67.6,29.88,WNW,292,0.0,-999.0,95,-99.99,,,0.01,Acu-Link.com,2013-05-24 12:51:00,
2013-05-24 08:06:00,70.2,68.7,29.89,North,0,0.0,-999.0,95,-99.99,,,0.01,Acu-Link.com,2013-05-24 13:06:00,
2013-05-24 08:21:00,70.7,69.2,29.88,ESE,112,0.0,-999.0,95,-99.99,,,0.01,Acu-Link.com,2013-05-24 13:21:00,
2013-05-24 08:36:00,70.7,69.2,29.89,NE,45,0.0,-999.0,95,-99.99,,,0.01,Acu-Link.com,2013-05-24 13:36:00,
2013-05-24 08:52:00,72.9,71.1,29.88,NW,315,2.7,-999.0,94,-99.99,,,0.01,Acu-Link.com,2013-05-24 13:52:00,
2013-05-24 09:07:00,74.3,72.1,29.88,West,270,0.0,-999.0,93,-99.99,,,0.01,Acu-Link.com,2013-05-24 14:07:00,
2013-05-24 09:23:00,74.3,72.1,29.88,WNW,292,0.0,-999.0,93,-99.99,,,0.01,Acu-Link.com,2013-05-24 14:23:00,
2013-05-24 09:38:00,74.3,71.8,29.88,WSW,247,2.7,-999.0,92,-99.99,,,0.01,Acu-Link.com,2013-05-24 14:38:00,
2013-05-24 09:53:00,76.5,72.3,29.88,ESE,112,1.7,-999.0,87,-99.99,,,0.01,Acu-Link.com,2013-05-24 14:53:00,
2013-05-24 10:08:00,76.5,71.3,29.88,ENE,67,3.2,-999.0,84,-99.99,,,0.01,Acu-Link.com,2013-05-24 15:08:00,
2013-05-24 10:23:00,78.1,73.2,29.88,NE,45,1.1,-999.0,85,-99.99,,,0.01,Acu-Link.com,2013-05-24 15:23:00,
2013-05-24 10:38:00,79.0,73.0,29.88,East,90,2.2,-999.0,82,-99.99,,,0.01,Acu-Link.com,2013-05-24 15:38:00,
2013-05-24 10:53:00,79.5,69.3,29.89,NNE,22,2.7,-999.0,71,-99.99,,,0.01,Acu-Link.com,2013-05-24 15:53:00,
2013-05-24 11:09:00,80.2,73.5,29.89,West,270,1.1,-999.0,80,-99.99,,,0.01,Acu-Link.com,2013-05-24 16:09:00,
2013-05-24 11:24:00,80.2,73.5,29.89,NE,45,1.7,-999.0,80,-99.99,,,0.01,Acu-Link.com,2013-05-24 16:24:00,
2013-05-24 11:39:00,80.2,73.5,29.89,ENE,67,1.1,-999.0,80,-99.99,,,0.01,Acu-Link.com,2013-05-24 16:39:00,
2013-05-24 11:54:00,80.2,72.7,29.87,ESE,112,0.0,-999.0,78,-99.99,,,0.01,Acu-Link.com,2013-05-24 16:54:00,
2013-05-24 12:10:00,80.2,68.2,29.88,West,270,1.7,-999.0,67,-99.99,,,0.01,Acu-Link.com,2013-05-24 17:10:00,
2013-05-24 12:25:00,80.2,79.3,29.87,ESE,112,3.7,-999.0,97,-99.99,,,0.01,Acu-Link.com,2013-05-24 17:25:00,
2013-05-24 13:20:00,80.2,79.3,29.87,NE,45,2.2,-999.0,97,-99.99,,,0.01,Acu-Link.com,2013-05-24 18:20:00,
2013-05-24 13:36:00,88.0,80.3,29.87,ENE,67,1.7,-999.0,78,-99.99,,,0.01,Acu-Link.com,2013-05-24 18:36:00,
2013-05-24 13:51:00,88.0,71.3,29.87,NE,45,1.1,-999.0,58,-99.99,,,0.01,Acu-Link.com,2013-05-24 18:51:00,
2013-05-24 14:06:00,88.0,87.7,29.86,WSW,247,2.2,-999.0,99,-99.99,,,0.01,Acu-Link.com,2013-05-24 19:06:00,
2013-05-24 14:21:00,88.0,87.7,29.87,East,90,2.2,-999.0,99,-99.99,,,0.01,Acu-Link.com,2013-05-24 19:21:00,
2013-05-24 14:37:00,88.0,73.3,29.85,East,90,3.7,-999.0,62,-99.99,,,0.01,Acu-Link.com,2013-05-24 19:37:00,
2013-05-24 14:52:00,88.0,70.8,29.84,ENE,67,1.7,-999.0,57,-99.99,,,0.01,Acu-Link.com,2013-05-24 19:52:00,
2013-05-24 15:07:00,88.0,70.8,29.84,East,90,1.7,-999.0,57,-99.99,,,0.01,Acu-Link.com,2013-05-24 20:07:00,
2013-05-24 15:23:00,88.0,70.8,29.85,NNE,22,2.2,-999.0,57,-99.99,,,0.01,Acu-Link.com,2013-05-24 20:23:00,
2013-05-24 15:38:00,88.0,70.8,29.85,East,90,2.2,-999.0,57,-99.99,,,0.01,Acu-Link.com,2013-05-24 20:38:00,
2013-05-24 15:53:00,88.0,70.8,29.85,East,90,3.2,-999.0,57,-99.99,,,0.01,Acu-Link.com,2013-05-24 20:53:00,
2013-05-24 16:08:00,88.0,70.8,29.84,NE,45,4.7,-999.0,57,-99.99,,,0.01,Acu-Link.com,2013-05-24 21:08:00,
2013-05-24 16:23:00,88.0,86.0,29.82,ENE,67,5.8,-999.0,94,-99.99,,,0.01,Acu-Link.com,2013-05-24 21:23:00,
2013-05-24 16:38:00,88.0,87.4,29.82,East,90,2.7,-999.0,98,-99.99,,,0.01,Acu-Link.com,2013-05-24 21:38:00,
2013-05-24 16:54:00,88.0,71.3,29.82,NE,45,3.7,-999.0,58,-99.99,,,0.01,Acu-Link.com,2013-05-24 21:54:00,
2013-05-24 17:09:00,88.0,71.3,29.81,ESE,112,2.7,-999.0,58,-99.99,,,0.01,Acu-Link.com,2013-05-24 22:09:00,
2013-05-24 17:24:00,88.0,70.8,29.82,NE,45,3.7,-999.0,57,-99.99,,,0.01,Acu-Link.com,2013-05-24 22:24:00,
2013-05-24 17:40:00,88.0,70.8,29.81,ENE,67,3.7,-999.0,57,-99.99,,,0.01,Acu-Link.com,2013-05-24 22:40:00,
2013-05-24 17:55:00,88.0,70.8,29.81,East,90,2.2,-999.0,57,-99.99,,,0.01,Acu-Link.com,2013-05-24 22:55:00,
2013-05-24 18:11:00,88.0,70.8,29.80,ENE,67,3.7,-999.0,57,-99.99,,,0.01,Acu-Link.com,2013-05-24 23:11:00,
2013-05-24 18:26:00,88.0,70.8,29.81,East,90,4.7,-999.0,57,-99.99,,,0.01,Acu-Link.com,2013-05-24 23:26:00,
2013-05-24 18:41:00,88.0,70.8,29.81,ENE,67,2.2,-999.0,57,-99.99,,,0.01,Acu-Link.com,2013-05-24 23:41:00,
2013-05-24 18:56:00,88.0,70.8,29.82,East,90,1.7,-999.0,57,-99.99,,,0.01,Acu-Link.com,2013-05-24 23:56:00,
2013-05-24 19:12:00,88.0,70.8,29.83,ENE,67,2.2,-999.0,57,-99.99,,,0.01,Acu-Link.com,2013-05-25 00:12:00,
2013-05-24 19:27:00,88.0,70.8,29.83,ENE,67,2.7,-999.0,57,-99.99,,,0.01,Acu-Link.com,2013-05-25 00:27:00,
2013-05-24 19:43:00,88.0,70.8,29.86,ENE,67,0.0,-999.0,57,-99.99,,,0.01,Acu-Link.com,2013-05-25 00:43:00,
2013-05-24 19:58:00,88.0,70.8,29.85,ENE,67,1.7,-999.0,57,-99.99,,,0.01,Acu-Link.com,2013-05-25 00:58:00,
2013-05-24 20:13:00,88.0,70.8,29.85,NE,45,0.0,-999.0,57,-99.99,,,0.01,Acu-Link.com,2013-05-25 01:13:00,
2013-05-24 20:28:00,88.0,70.8,29.86,NNW,337,0.0,-999.0,57,-99.99,,,0.01,Acu-Link.com,2013-05-25 01:28:00,
2013-05-24 20:43:00,88.0,70.8,29.87,North,0,0.0,-999.0,57,-99.99,,,0.01,Acu-Link.com,2013-05-25 01:43:00,
2013-05-24 20:58:00,88.0,70.8,29.86,North,0,0.0,-999.0,57,-99.99,,,0.01,Acu-Link.com,2013-05-25 01:58:00,
2013-05-24 21:13:00,88.0,70.8,29.86,NE,45,0.0,-999.0,57,-99.99,,,0.01,Acu-Link.com,2013-05-25 02:13:00,
2013-05-24 21:29:00,88.0,70.8,29.86,NE,45,0.0,-999.0,57,-99.99,,,0.01,Acu-Link.com,2013-05-25 02:29:00,
2013-05-24 21:44:00,88.0,70.8,29.88,ENE,67,1.7,-999.0,57,-99.99,,,0.01,Acu-Link.com,2013-05-25 02:44:00,
2013-05-24 21:59:00,88.0,70.8,29.87,ENE,67,2.2,-999.0,57,-99.99,,,0.01,Acu-Link.com,2013-05-25 02:59:00,
2013-05-24 22:14:00,88.0,70.8,29.87,ENE,67,2.7,-999.0,57,-99.99,,,0.01,Acu-Link.com,2013-05-25 03:14:00,
2013-05-24 22:29:00,88.0,70.8,29.88,ENE,67,1.7,-999.0,57,-99.99,,,0.01,Acu-Link.com,2013-05-25 03:29:00,
2013-05-24 22:44:00,88.0,70.8,29.88,NNW,337,2.2,-999.0,57,-99.99,,,0.01,Acu-Link.com,2013-05-25 03:44:00,
2013-05-24 23:00:00,88.0,70.8,29.87,East,90,0.0,-999.0,57,-99.99,,,0.01,Acu-Link.com,2013-05-25 04:00:00,
2013-05-24 23:29:00,88.0,70.8,29.89,NE,45,0.0,-999.0,57,-99.99,,,0.01,Acu-Link.com,2013-05-25 04:29:00,